createdAt,value
2018-10-04T00:00:20.276Z,0.00
2018-10-04T00:01:20.305Z,0.00
2018-10-04T00:02:20.335Z,0.00
2018-10-04T00:03:20.365Z,0.00
2018-10-04T00:04:20.396Z,0.00
2018-10-04T00:05:20.425Z,0.00
2018-10-04T00:06:20.455Z,0.00
2018-10-04T00:07:20.488Z,0.00
2018-10-04T00:08:20.515Z,0.00
2018-10-04T00:09:20.545Z,0.00
2018-10-04T00:10:20.577Z,0.00
2018-10-04T00:11:20.605Z,0.00
2018-10-04T00:12:20.635Z,0.00
2018-10-04T00:13:20.665Z,0.00
2018-10-04T00:14:20.695Z,0.00
2018-10-04T00:15:20.729Z,0.00
2018-10-04T00:16:20.754Z,0.00
2018-10-04T00:17:20.787Z,0.00
2018-10-04T00:18:20.815Z,0.00
2018-10-04T00:19:20.845Z,0.00
2018-10-04T00:20:20.874Z,0.00
2018-10-04T00:21:20.903Z,0.00
2018-10-04T00:22:20.933Z,0.00
2018-10-04T00:23:20.963Z,0.00
2018-10-04T00:24:20.995Z,0.00
2018-10-04T00:25:21.024Z,0.00
2018-10-04T00:26:21.054Z,0.00
2018-10-04T00:27:21.085Z,0.00
2018-10-04T00:28:21.115Z,0.00
2018-10-04T00:29:21.142Z,0.00
2018-10-04T00:30:21.172Z,0.00
2018-10-04T00:31:21.204Z,0.00
2018-10-04T00:32:21.233Z,0.00
2018-10-04T00:33:21.262Z,0.00
2018-10-04T00:34:21.291Z,0.00
2018-10-04T00:35:21.322Z,0.00
2018-10-04T00:36:21.352Z,0.00
2018-10-04T00:37:21.381Z,0.00
2018-10-04T00:38:22.864Z,0.00
2018-10-04T00:39:21.445Z,0.00
2018-10-04T00:40:21.471Z,0.00
2018-10-04T00:41:21.499Z,0.00
2018-10-04T00:42:21.529Z,0.00
2018-10-04T00:43:21.563Z,0.00
2018-10-04T00:44:21.589Z,0.00
2018-10-04T00:45:21.617Z,0.00
2018-10-04T00:46:21.648Z,0.00
2018-10-04T00:47:21.677Z,0.00
2018-10-04T00:48:21.707Z,0.00
2018-10-04T00:49:21.737Z,0.00
2018-10-04T00:50:21.768Z,0.00
2018-10-04T00:51:21.797Z,0.00
2018-10-04T00:52:21.826Z,0.00
2018-10-04T00:53:21.856Z,0.00
2018-10-04T00:54:21.890Z,0.00
2018-10-04T00:55:21.914Z,0.00
2018-10-04T00:56:21.944Z,0.00
2018-10-04T00:57:21.973Z,0.00
2018-10-04T00:58:22.003Z,0.00
2018-10-04T00:59:22.033Z,0.00
2018-10-04T01:00:22.062Z,0.00
2018-10-04T01:01:22.091Z,0.00
2018-10-04T01:02:22.121Z,0.00
2018-10-04T01:03:22.155Z,0.00
2018-10-04T01:04:22.181Z,0.00
2018-10-04T01:05:22.285Z,0.00
2018-10-04T01:06:22.240Z,0.00
2018-10-04T01:07:22.269Z,0.00
2018-10-04T01:08:22.301Z,0.00
2018-10-04T01:09:22.327Z,0.00
2018-10-04T01:10:22.357Z,0.00
2018-10-04T01:11:22.388Z,0.00
2018-10-04T01:12:22.416Z,0.00
2018-10-04T01:13:22.446Z,0.00
2018-10-04T01:14:22.475Z,0.00
2018-10-04T01:15:22.505Z,0.00
2018-10-04T01:16:22.534Z,0.00
2018-10-04T01:17:22.569Z,0.00
2018-10-04T01:18:22.593Z,0.00
2018-10-04T01:19:22.623Z,0.00
2018-10-04T01:20:22.651Z,0.00
2018-10-04T01:21:22.682Z,0.00
2018-10-04T01:22:22.712Z,0.00
2018-10-04T01:23:22.739Z,0.00
2018-10-04T01:24:22.770Z,0.00
2018-10-04T01:25:22.799Z,0.00
2018-10-04T01:26:22.828Z,0.00
2018-10-04T01:27:22.857Z,0.00
2018-10-04T01:28:22.886Z,0.00
2018-10-04T01:29:22.915Z,0.00
2018-10-04T01:30:22.946Z,0.00
2018-10-04T01:31:22.979Z,0.00
2018-10-04T01:32:23.005Z,0.00
2018-10-04T01:33:23.034Z,0.00
2018-10-04T01:34:23.062Z,0.00
2018-10-04T01:35:23.092Z,0.00
2018-10-04T01:36:23.121Z,0.00
2018-10-04T01:37:23.152Z,0.00
2018-10-04T01:38:23.179Z,0.00
2018-10-04T01:39:23.210Z,0.00
2018-10-04T01:40:23.240Z,0.00
2018-10-04T01:41:23.267Z,0.00
2018-10-04T01:42:23.298Z,0.00
2018-10-04T01:43:23.327Z,0.00
2018-10-04T01:44:23.356Z,0.00
2018-10-04T01:45:23.386Z,0.00
2018-10-04T01:46:23.415Z,0.00
2018-10-04T01:47:23.445Z,0.00
2018-10-04T01:48:23.475Z,0.00
2018-10-04T01:49:23.503Z,0.00
2018-10-04T01:50:23.536Z,0.00
2018-10-04T01:51:23.561Z,0.00
2018-10-04T01:52:23.591Z,0.00
2018-10-04T01:53:23.621Z,0.00
2018-10-04T01:54:23.649Z,0.00
2018-10-04T01:55:23.680Z,0.00
2018-10-04T01:56:23.708Z,0.00
2018-10-04T01:57:23.737Z,0.00
2018-10-04T01:58:23.768Z,0.00
2018-10-04T01:59:23.797Z,0.00
2018-10-04T02:00:23.828Z,0.00
2018-10-04T02:01:23.854Z,0.00
2018-10-04T02:02:23.885Z,0.00
2018-10-04T02:03:23.914Z,0.00
2018-10-04T02:04:23.946Z,0.00
2018-10-04T02:05:23.973Z,0.00
2018-10-04T02:06:24.000Z,0.00
2018-10-04T02:07:24.030Z,0.00
2018-10-04T02:08:24.059Z,0.00
2018-10-04T02:09:24.087Z,0.00
2018-10-04T02:10:24.119Z,0.00
2018-10-04T02:11:24.149Z,0.00
2018-10-04T02:12:24.177Z,0.00
2018-10-04T02:13:24.205Z,0.00
2018-10-04T02:14:24.235Z,0.00
2018-10-04T02:15:24.263Z,0.00
2018-10-04T02:16:24.293Z,0.00
2018-10-04T02:17:24.326Z,0.00
2018-10-04T02:18:24.351Z,0.00
2018-10-04T02:19:24.380Z,0.00
2018-10-04T02:20:24.411Z,0.00
2018-10-04T02:21:24.438Z,0.00
2018-10-04T02:22:24.471Z,0.00
2018-10-04T02:23:24.498Z,0.00
2018-10-04T02:24:24.527Z,0.00
2018-10-04T02:25:24.558Z,0.00
2018-10-04T02:26:24.586Z,0.00
2018-10-04T02:27:24.614Z,0.00
2018-10-04T02:28:24.643Z,0.00
2018-10-04T02:29:24.671Z,0.00
2018-10-04T02:30:24.705Z,0.00
2018-10-04T02:31:24.731Z,0.00
2018-10-04T02:32:24.761Z,0.00
2018-10-04T02:33:24.791Z,0.00
2018-10-04T02:34:24.818Z,0.00
2018-10-04T02:35:24.850Z,0.00
2018-10-04T02:36:24.877Z,0.00
2018-10-04T02:37:24.905Z,0.00
2018-10-04T02:38:24.933Z,0.00
2018-10-04T02:39:24.963Z,0.00
2018-10-04T02:40:24.992Z,0.00
2018-10-04T02:41:25.021Z,0.00
2018-10-04T02:42:25.117Z,0.00
2018-10-04T02:43:25.080Z,0.00
2018-10-04T02:44:25.109Z,0.00
2018-10-04T02:45:25.136Z,0.00
2018-10-04T02:46:25.167Z,0.00
2018-10-04T02:47:25.195Z,0.00
2018-10-04T02:48:25.225Z,0.00
2018-10-04T02:49:25.254Z,0.00
2018-10-04T02:50:25.283Z,0.00
2018-10-04T02:51:25.312Z,0.00
2018-10-04T02:52:25.341Z,0.00
2018-10-04T02:53:25.369Z,0.00
2018-10-04T02:54:25.409Z,0.00
2018-10-04T02:55:25.429Z,0.00
2018-10-04T02:56:25.457Z,0.00
2018-10-04T02:57:25.490Z,0.00
2018-10-04T02:58:25.516Z,0.00
2018-10-04T02:59:25.545Z,0.00
2018-10-04T03:00:25.574Z,0.00
2018-10-04T03:01:25.601Z,0.00
2018-10-04T03:02:25.643Z,0.00
2018-10-04T03:03:25.673Z,0.00
2018-10-04T03:04:25.689Z,0.00
2018-10-04T03:05:25.717Z,0.00
2018-10-04T03:06:25.746Z,0.00
2018-10-04T03:07:25.775Z,0.00
2018-10-04T03:08:25.804Z,0.00
2018-10-04T03:09:25.833Z,0.00
2018-10-04T03:10:25.862Z,0.00
2018-10-04T03:11:25.890Z,0.00
2018-10-04T03:12:25.919Z,0.00
2018-10-04T03:13:25.947Z,0.00
2018-10-04T03:14:25.977Z,0.00
2018-10-04T03:15:26.005Z,0.00
2018-10-04T03:16:26.035Z,0.00
2018-10-04T03:17:26.064Z,0.00
2018-10-04T03:18:26.092Z,0.00
2018-10-04T03:19:26.121Z,0.00
2018-10-04T03:20:26.155Z,0.00
2018-10-04T03:21:26.233Z,0.00
2018-10-04T03:22:26.207Z,0.00
2018-10-04T03:23:26.236Z,0.00
2018-10-04T03:24:26.265Z,0.00
2018-10-04T03:25:26.292Z,0.00
2018-10-04T03:26:26.323Z,0.00
2018-10-04T03:27:26.353Z,0.00
2018-10-04T03:28:26.383Z,0.00
2018-10-04T03:29:26.408Z,0.00
2018-10-04T03:30:26.437Z,0.00
2018-10-04T03:31:26.465Z,0.00
2018-10-04T03:32:26.495Z,0.00
2018-10-04T03:33:26.523Z,0.00
2018-10-04T03:34:26.554Z,0.00
2018-10-04T03:35:26.580Z,0.00
2018-10-04T03:36:26.609Z,0.00
2018-10-04T03:37:26.637Z,0.00
2018-10-04T03:38:26.666Z,0.00
2018-10-04T03:39:26.696Z,0.00
2018-10-04T03:40:26.727Z,0.00
2018-10-04T03:41:26.753Z,0.00
2018-10-04T03:42:26.780Z,0.00
2018-10-04T03:43:26.810Z,0.00
2018-10-04T03:44:26.917Z,0.00
2018-10-04T03:45:26.867Z,0.00
2018-10-04T03:46:26.897Z,0.00
2018-10-04T03:47:26.925Z,0.00
2018-10-04T03:48:26.954Z,0.00
2018-10-04T03:49:26.981Z,0.00
2018-10-04T03:50:27.010Z,0.00
2018-10-04T03:51:27.039Z,0.00
2018-10-04T03:52:27.068Z,0.00
2018-10-04T03:53:27.096Z,0.00
2018-10-04T03:54:27.125Z,0.00
2018-10-04T03:55:27.153Z,0.00
2018-10-04T03:56:27.182Z,0.00
2018-10-04T03:57:27.209Z,0.00
2018-10-04T03:58:27.239Z,0.00
2018-10-04T03:59:27.267Z,0.00
2018-10-04T04:00:27.299Z,0.00
2018-10-04T04:01:27.325Z,0.00
2018-10-04T04:02:27.354Z,0.00
2018-10-04T04:03:27.383Z,0.00
2018-10-04T04:04:27.413Z,0.00
2018-10-04T04:05:27.441Z,0.00
2018-10-04T04:06:27.468Z,0.00
2018-10-04T04:07:27.496Z,0.00
2018-10-04T04:08:27.526Z,0.00
2018-10-04T04:09:27.553Z,0.00
2018-10-04T04:10:27.583Z,0.00
2018-10-04T04:11:27.619Z,0.00
2018-10-04T04:12:27.641Z,0.00
2018-10-04T04:13:27.669Z,0.00
2018-10-04T04:14:27.697Z,0.00
2018-10-04T04:15:27.725Z,0.00
2018-10-04T04:16:27.754Z,0.00
2018-10-04T04:17:27.781Z,0.00
2018-10-04T04:18:27.810Z,0.00
2018-10-04T04:19:27.842Z,0.00
2018-10-04T04:20:27.869Z,0.00
2018-10-04T04:21:27.896Z,0.00
2018-10-04T04:22:28.004Z,0.00
2018-10-04T04:23:27.954Z,0.00
2018-10-04T04:24:27.985Z,0.00
2018-10-04T04:25:28.010Z,0.00
2018-10-04T04:26:28.039Z,0.00
2018-10-04T04:27:28.068Z,0.00
2018-10-04T04:28:28.096Z,0.00
2018-10-04T04:29:28.125Z,0.00
2018-10-04T04:30:28.182Z,0.00
2018-10-04T04:31:28.181Z,0.00
2018-10-04T04:32:28.211Z,0.00
2018-10-04T04:33:28.239Z,0.00
2018-10-04T04:34:28.268Z,0.00
2018-10-04T04:35:28.297Z,0.00
2018-10-04T04:36:28.327Z,0.00
2018-10-04T04:37:28.353Z,0.00
2018-10-04T04:38:28.381Z,0.00
2018-10-04T04:39:29.962Z,0.00
2018-10-04T04:40:28.438Z,0.00
2018-10-04T04:41:28.467Z,0.00
2018-10-04T04:42:28.494Z,0.00
2018-10-04T04:43:28.525Z,0.00
2018-10-04T04:44:28.576Z,0.00
2018-10-04T04:45:28.580Z,0.00
2018-10-04T04:46:28.700Z,0.00
2018-10-04T04:47:28.638Z,0.00
2018-10-04T04:48:28.665Z,0.00
2018-10-04T04:49:28.693Z,0.00
2018-10-04T04:50:28.721Z,0.00
2018-10-04T04:51:28.750Z,0.00
2018-10-04T04:52:28.779Z,0.00
2018-10-04T04:53:28.811Z,0.00
2018-10-04T04:54:28.836Z,0.00
2018-10-04T04:55:28.866Z,0.00
2018-10-04T04:56:28.897Z,0.00
2018-10-04T04:57:28.921Z,0.00
2018-10-04T04:58:28.950Z,0.00
2018-10-04T04:59:28.978Z,0.00
2018-10-04T05:00:29.007Z,0.00
2018-10-04T05:01:29.035Z,0.00
2018-10-04T05:02:29.063Z,0.00
2018-10-04T05:03:29.090Z,0.00
2018-10-04T05:04:29.120Z,0.00
2018-10-04T05:05:29.147Z,0.00
2018-10-04T05:06:29.224Z,0.00
2018-10-04T05:07:29.205Z,0.00
2018-10-04T05:08:29.234Z,0.00
2018-10-04T05:09:29.260Z,0.00
2018-10-04T05:10:29.290Z,0.00
2018-10-04T05:11:29.324Z,0.00
2018-10-04T05:12:29.347Z,0.00
2018-10-04T05:13:29.375Z,0.00
2018-10-04T05:14:29.403Z,0.00
2018-10-04T05:15:29.431Z,0.00
2018-10-04T05:16:29.460Z,0.00
2018-10-04T05:17:29.487Z,0.00
2018-10-04T05:18:29.518Z,0.00
2018-10-04T05:19:29.546Z,0.00
2018-10-04T05:20:29.573Z,0.00
2018-10-04T05:21:29.600Z,0.00
2018-10-04T05:22:29.722Z,0.00
2018-10-04T05:23:29.658Z,0.00
2018-10-04T05:24:29.693Z,0.00
2018-10-04T05:25:29.714Z,0.00
2018-10-04T05:26:29.742Z,5.63
2018-10-04T05:27:29.771Z,5.63
2018-10-04T05:28:29.799Z,5.63
2018-10-04T05:29:29.827Z,5.63
2018-10-04T05:30:29.860Z,5.63
2018-10-04T05:31:29.885Z,5.63
2018-10-04T05:32:29.914Z,5.63
2018-10-04T05:33:29.941Z,11.25
2018-10-04T05:34:29.969Z,11.25
2018-10-04T05:35:29.997Z,11.25
2018-10-04T05:36:30.026Z,11.25
2018-10-04T05:37:30.157Z,11.25
2018-10-04T05:38:30.082Z,16.88
2018-10-04T05:39:30.110Z,16.88
2018-10-04T05:40:30.140Z,16.88
2018-10-04T05:41:30.167Z,16.88
2018-10-04T05:42:30.195Z,22.50
2018-10-04T05:43:30.224Z,22.50
2018-10-04T05:44:30.252Z,22.50
2018-10-04T05:45:30.283Z,22.50
2018-10-04T05:46:30.308Z,28.13
2018-10-04T05:47:30.336Z,28.13
2018-10-04T05:48:30.368Z,28.13
2018-10-04T05:49:30.393Z,33.75
2018-10-04T05:50:30.421Z,33.75
2018-10-04T05:51:30.450Z,33.75
2018-10-04T05:52:30.479Z,39.38
2018-10-04T05:53:30.614Z,39.38
2018-10-04T05:54:30.535Z,39.38
2018-10-04T05:55:30.562Z,39.38
2018-10-04T05:56:30.592Z,45.00
2018-10-04T05:57:30.622Z,45.00
2018-10-04T05:58:30.650Z,50.63
2018-10-04T05:59:30.751Z,50.63
2018-10-04T06:00:30.704Z,50.63
2018-10-04T06:01:30.734Z,56.25
2018-10-04T06:02:30.761Z,56.25
2018-10-04T06:03:30.789Z,56.25
2018-10-04T06:04:30.819Z,61.88
2018-10-04T06:05:30.847Z,61.88
2018-10-04T06:06:30.875Z,67.50
2018-10-04T06:07:30.904Z,67.50
2018-10-04T06:08:30.931Z,67.50
2018-10-04T06:09:30.960Z,73.13
2018-10-04T06:10:30.989Z,73.13
2018-10-04T06:11:31.017Z,73.13
2018-10-04T06:12:31.046Z,78.75
2018-10-04T06:13:31.073Z,78.75
2018-10-04T06:14:31.102Z,78.75
2018-10-04T06:15:31.220Z,84.38
2018-10-04T06:16:31.158Z,84.38
2018-10-04T06:17:31.187Z,84.38
2018-10-04T06:18:31.216Z,84.38
2018-10-04T06:19:31.245Z,84.38
2018-10-04T06:20:31.274Z,84.38
2018-10-04T06:21:31.300Z,90.00
2018-10-04T06:22:31.334Z,90.00
2018-10-04T06:23:31.358Z,90.00
2018-10-04T06:24:31.388Z,95.63
2018-10-04T06:25:31.415Z,95.63
2018-10-04T06:26:31.444Z,95.63
2018-10-04T06:27:31.473Z,95.63
2018-10-04T06:28:31.533Z,101.25
2018-10-04T06:29:31.531Z,101.25
2018-10-04T06:30:31.565Z,101.25
2018-10-04T06:31:31.588Z,106.88
2018-10-04T06:32:31.620Z,106.88
2018-10-04T06:33:31.646Z,106.88
2018-10-04T06:34:31.673Z,106.88
2018-10-04T06:35:31.703Z,112.50
2018-10-04T06:36:31.732Z,112.50
2018-10-04T06:37:31.760Z,112.50
2018-10-04T06:38:31.790Z,118.13
2018-10-04T06:39:31.820Z,118.13
2018-10-04T06:40:31.849Z,118.13
2018-10-04T06:41:31.886Z,118.13
2018-10-04T06:42:31.905Z,123.75
2018-10-04T06:43:31.935Z,123.75
2018-10-04T06:44:31.964Z,123.75
2018-10-04T06:45:31.994Z,129.38
2018-10-04T06:46:32.022Z,129.38
2018-10-04T06:47:32.054Z,129.38
2018-10-04T06:48:32.081Z,135.00
2018-10-04T06:49:32.111Z,135.00
2018-10-04T06:50:32.138Z,135.00
2018-10-04T06:51:32.168Z,140.63
2018-10-04T06:52:32.198Z,140.63
2018-10-04T06:53:32.227Z,140.63
2018-10-04T06:54:32.257Z,146.25
2018-10-04T06:55:32.342Z,146.25
2018-10-04T06:56:32.316Z,146.25
2018-10-04T06:57:32.345Z,157.50
2018-10-04T06:58:32.374Z,151.88
2018-10-04T06:59:32.405Z,157.50
2018-10-04T07:00:32.441Z,151.88
2018-10-04T07:01:32.463Z,157.50
2018-10-04T07:02:32.494Z,157.50
2018-10-04T07:03:32.531Z,168.75
2018-10-04T07:04:32.553Z,163.13
2018-10-04T07:05:32.583Z,168.75
2018-10-04T07:06:32.613Z,168.75
2018-10-04T07:07:32.647Z,174.38
2018-10-04T07:08:32.674Z,174.38
2018-10-04T07:09:32.703Z,174.38
2018-10-04T07:10:32.732Z,180.00
2018-10-04T07:11:32.763Z,180.00
2018-10-04T07:12:32.794Z,185.63
2018-10-04T07:13:32.823Z,185.63
2018-10-04T07:14:32.853Z,191.25
2018-10-04T07:15:32.884Z,191.25
2018-10-04T07:16:32.916Z,196.88
2018-10-04T07:17:32.945Z,196.88
2018-10-04T07:18:32.976Z,196.88
2018-10-04T07:19:33.011Z,202.50
2018-10-04T07:20:33.105Z,202.50
2018-10-04T07:21:33.067Z,202.50
2018-10-04T07:22:33.099Z,202.50
2018-10-04T07:23:33.129Z,208.13
2018-10-04T07:24:33.161Z,208.13
2018-10-04T07:25:33.192Z,208.13
2018-10-04T07:26:33.224Z,213.75
2018-10-04T07:27:33.256Z,213.75
2018-10-04T07:28:33.286Z,219.38
2018-10-04T07:29:33.317Z,219.38
2018-10-04T07:30:33.349Z,225.00
2018-10-04T07:31:33.431Z,225.00
2018-10-04T07:32:33.410Z,225.00
2018-10-04T07:33:33.444Z,230.63
2018-10-04T07:34:33.474Z,230.63
2018-10-04T07:35:33.506Z,236.25
2018-10-04T07:36:33.538Z,236.25
2018-10-04T07:37:33.572Z,236.25
2018-10-04T07:38:33.602Z,241.88
2018-10-04T07:39:33.633Z,241.88
2018-10-04T07:40:33.666Z,247.50
2018-10-04T07:41:33.698Z,247.50
2018-10-04T07:42:33.802Z,247.50
2018-10-04T07:43:33.762Z,253.13
2018-10-04T07:44:33.798Z,253.13
2018-10-04T07:45:33.827Z,253.13
2018-10-04T07:46:33.864Z,258.75
2018-10-04T07:47:33.893Z,258.75
2018-10-04T07:48:33.925Z,258.75
2018-10-04T07:49:33.958Z,264.38
2018-10-04T07:50:33.994Z,264.38
2018-10-04T07:51:34.023Z,264.38
2018-10-04T07:52:34.057Z,264.38
2018-10-04T07:53:34.090Z,264.38
2018-10-04T07:54:34.124Z,264.38
2018-10-04T07:55:34.156Z,270.00
2018-10-04T07:56:34.201Z,270.00
2018-10-04T07:57:34.220Z,270.00
2018-10-04T07:58:34.254Z,270.00
2018-10-04T07:59:34.288Z,275.63
2018-10-04T08:00:34.322Z,275.63
2018-10-04T08:01:34.355Z,275.63
2018-10-04T08:02:34.389Z,281.25
2018-10-04T08:03:34.447Z,281.25
2018-10-04T08:04:34.476Z,281.25
2018-10-04T08:05:34.489Z,292.50
2018-10-04T08:06:34.851Z,286.88
2018-10-04T08:07:34.558Z,292.50
2018-10-04T08:08:34.595Z,309.38
2018-10-04T08:09:34.624Z,348.75
2018-10-04T08:10:34.658Z,376.88
2018-10-04T08:11:34.693Z,393.75
2018-10-04T08:12:34.727Z,410.63
2018-10-04T08:13:34.760Z,427.50
2018-10-04T08:14:34.797Z,461.25
2018-10-04T08:15:34.831Z,489.38
2018-10-04T08:16:34.866Z,511.88
2018-10-04T08:17:34.900Z,534.38
2018-10-04T08:18:34.936Z,562.50
2018-10-04T08:19:34.971Z,601.88
2018-10-04T08:20:35.007Z,826.88
2018-10-04T08:21:35.041Z,1006.88
2018-10-04T08:22:35.077Z,973.13
2018-10-04T08:23:35.114Z,1046.25
2018-10-04T08:24:35.149Z,1141.88
2018-10-04T08:25:35.185Z,1226.25
2018-10-04T08:26:35.227Z,1226.25
2018-10-04T08:27:35.328Z,1254.38
2018-10-04T08:28:35.295Z,1237.50
2018-10-04T08:29:35.332Z,1293.75
2018-10-04T08:30:35.368Z,1316.25
2018-10-04T08:31:35.406Z,1293.75
2018-10-04T08:32:35.443Z,1327.50
2018-10-04T08:33:35.542Z,1372.50
2018-10-04T08:34:35.517Z,1366.88
2018-10-04T08:35:35.561Z,1383.75
2018-10-04T08:36:35.595Z,1389.38
2018-10-04T08:37:35.630Z,1361.25
2018-10-04T08:38:35.669Z,1417.50
2018-10-04T08:39:35.710Z,1417.50
2018-10-04T08:40:35.746Z,1428.75
2018-10-04T08:41:35.785Z,1411.88
2018-10-04T08:42:35.943Z,1423.13
2018-10-04T08:43:35.862Z,1456.88
2018-10-04T08:44:35.901Z,1468.13
2018-10-04T08:45:35.941Z,1406.25
2018-10-04T08:46:35.982Z,1434.38
2018-10-04T08:47:36.019Z,1462.50
2018-10-04T08:48:36.059Z,1462.50
2018-10-04T08:49:36.099Z,1479.38
2018-10-04T08:50:36.142Z,1468.13
2018-10-04T08:51:36.181Z,1490.63
2018-10-04T08:52:36.221Z,1524.38
2018-10-04T08:53:36.285Z,1535.63
2018-10-04T08:54:36.299Z,1485.00
2018-10-04T08:55:36.339Z,1333.13
2018-10-04T08:56:36.381Z,1147.50
2018-10-04T08:57:36.423Z,1023.75
2018-10-04T08:58:36.462Z,990.00
2018-10-04T08:59:36.568Z,984.38
2018-10-04T09:00:36.542Z,973.13
2018-10-04T09:01:36.583Z,978.75
2018-10-04T09:02:36.625Z,967.50
2018-10-04T09:03:36.667Z,967.50
2018-10-04T09:04:36.709Z,973.13
2018-10-04T09:05:36.749Z,984.38
2018-10-04T09:06:36.800Z,995.63
2018-10-04T09:07:36.940Z,1001.25
2018-10-04T09:08:36.875Z,1023.75
2018-10-04T09:09:36.915Z,1147.50
2018-10-04T09:10:36.959Z,1400.63
2018-10-04T09:11:37.001Z,1586.25
2018-10-04T09:12:37.043Z,1665.00
2018-10-04T09:13:37.085Z,1687.50
2018-10-04T09:14:37.127Z,1693.13
2018-10-04T09:15:37.171Z,1771.88
2018-10-04T09:16:37.214Z,1788.75
2018-10-04T09:17:37.254Z,1777.50
2018-10-04T09:18:37.299Z,1800.00
2018-10-04T09:19:37.342Z,1845.00
2018-10-04T09:20:37.385Z,1856.25
2018-10-04T09:21:37.430Z,1794.38
2018-10-04T09:22:37.473Z,1715.63
2018-10-04T09:23:37.514Z,1704.38
2018-10-04T09:24:37.560Z,1800.00
2018-10-04T09:25:37.603Z,1850.63
2018-10-04T09:26:37.646Z,1861.88
2018-10-04T09:27:37.690Z,1895.63
2018-10-04T09:28:37.735Z,1946.25
2018-10-04T09:29:37.777Z,1951.88
2018-10-04T09:30:37.823Z,1957.50
2018-10-04T09:31:37.868Z,1935.00
2018-10-04T09:32:37.917Z,1951.88
2018-10-04T09:33:37.955Z,1957.50
2018-10-04T09:34:38.000Z,1923.75
2018-10-04T09:35:38.046Z,1929.38
2018-10-04T09:36:38.091Z,1918.13
2018-10-04T09:37:38.136Z,1906.88
2018-10-04T09:39:45.806Z,1980.00
2018-10-04T09:40:45.851Z,2030.63
2018-10-04T09:41:45.897Z,2064.38
2018-10-04T09:42:45.942Z,2081.25
2018-10-04T09:43:45.987Z,2109.38
2018-10-04T09:44:46.034Z,2092.50
2018-10-04T09:45:46.079Z,2081.25
2018-10-04T09:46:46.124Z,2075.63
2018-10-04T09:47:46.168Z,2086.88
2018-10-04T09:48:46.215Z,2120.63
2018-10-04T09:49:46.259Z,2165.63
2018-10-04T09:50:46.303Z,2092.50
2018-10-04T09:51:46.350Z,2025.00
2018-10-04T09:52:46.395Z,2002.50
2018-10-04T09:53:46.472Z,1996.88
2018-10-04T09:54:46.484Z,2115.00
2018-10-04T09:55:46.528Z,2193.75
2018-10-04T09:56:46.572Z,2221.88
2018-10-04T09:57:46.617Z,2193.75
2018-10-04T09:58:46.662Z,2255.63
2018-10-04T09:59:46.827Z,2238.75
2018-10-04T10:00:46.751Z,2244.38
2018-10-04T10:01:46.796Z,2199.38
2018-10-04T10:02:46.839Z,2210.63
2018-10-04T10:03:46.886Z,2233.13
2018-10-04T10:04:46.929Z,2266.88
2018-10-04T10:05:46.986Z,2233.13
2018-10-04T10:06:47.019Z,2154.38
2018-10-04T10:07:47.063Z,2193.75
2018-10-04T10:08:47.108Z,2233.13
2018-10-04T10:09:47.157Z,2250.00
2018-10-04T10:10:47.198Z,2295.00
2018-10-04T10:11:47.264Z,2255.63
2018-10-04T10:12:47.290Z,2272.50
2018-10-04T10:13:47.333Z,2244.38
2018-10-04T10:14:47.376Z,2278.13
2018-10-04T10:15:47.422Z,2323.13
2018-10-04T10:16:47.467Z,2334.38
2018-10-04T10:17:47.513Z,2345.63
2018-10-04T10:18:47.558Z,2334.38
2018-10-04T10:19:47.606Z,2362.50
2018-10-04T10:20:47.651Z,2379.38
2018-10-04T10:21:47.697Z,2401.88
2018-10-04T10:22:47.745Z,2458.13
2018-10-04T10:23:47.788Z,2413.13
2018-10-04T10:24:47.835Z,2407.50
2018-10-04T10:25:47.881Z,2475.00
2018-10-04T10:26:47.926Z,2491.88
2018-10-04T10:27:47.974Z,2475.00
2018-10-04T10:28:48.020Z,2475.00
2018-10-04T10:29:48.068Z,2520.00
2018-10-04T10:30:48.114Z,2441.25
2018-10-04T10:31:48.159Z,2385.00
2018-10-04T10:32:48.218Z,2424.38
2018-10-04T10:33:48.255Z,2334.38
2018-10-04T10:34:48.301Z,2356.88
2018-10-04T10:35:48.349Z,2261.25
2018-10-04T10:36:48.398Z,2295.00
2018-10-04T10:37:48.442Z,2401.88
2018-10-04T10:38:48.489Z,2441.25
2018-10-04T10:39:48.544Z,2418.75
2018-10-04T10:40:48.584Z,2441.25
2018-10-04T10:41:48.632Z,2486.25
2018-10-04T10:42:48.679Z,2362.50
2018-10-04T10:43:48.728Z,2233.13
2018-10-04T10:44:48.775Z,2345.63
2018-10-04T10:45:48.825Z,2413.13
2018-10-04T10:46:48.872Z,2520.00
2018-10-04T10:47:48.919Z,2491.88
2018-10-04T10:48:48.968Z,2480.63
2018-10-04T10:49:49.043Z,2520.00
2018-10-04T10:50:49.065Z,2463.75
2018-10-04T10:54:49.258Z,2418.75
2018-10-04T10:55:49.306Z,2491.88
2018-10-04T10:56:49.356Z,2491.88
2018-10-04T10:57:49.405Z,2497.50
2018-10-04T10:58:49.488Z,2463.75
2018-10-04T10:59:49.501Z,2458.13
2018-10-04T11:00:49.551Z,2497.50
2018-10-04T11:01:49.598Z,2390.63
2018-10-04T11:02:49.647Z,2390.63
2018-10-04T11:03:49.695Z,2491.88
2018-10-04T11:04:49.748Z,2480.63
2018-10-04T11:05:49.822Z,2351.25
2018-10-04T11:06:49.839Z,2255.63
2018-10-04T11:07:49.889Z,2272.50
2018-10-04T11:08:49.940Z,2261.25
2018-10-04T11:09:49.992Z,2362.50
2018-10-04T11:10:50.036Z,2491.88
2018-10-04T11:11:50.087Z,2587.50
2018-10-04T11:12:50.134Z,2610.00
2018-10-04T11:13:50.186Z,2626.88
2018-10-04T11:14:50.239Z,2632.50
2018-10-04T11:15:50.283Z,2632.50
2018-10-04T11:16:50.361Z,2593.13
2018-10-04T11:17:50.519Z,2581.88
2018-10-04T11:18:50.431Z,2576.25
2018-10-04T11:19:50.481Z,2587.50
2018-10-04T11:20:50.530Z,2671.88
2018-10-04T11:21:50.581Z,2750.63
2018-10-04T11:22:50.631Z,2756.25
2018-10-04T11:23:50.681Z,2694.38
2018-10-04T11:24:50.729Z,2705.63
2018-10-04T11:25:50.828Z,2716.88
2018-10-04T11:26:50.825Z,2716.88
2018-10-04T11:27:50.875Z,2716.88
2018-10-04T11:28:50.927Z,2643.75
2018-10-04T11:29:50.975Z,2525.63
2018-10-04T11:30:51.022Z,2441.25
2018-10-04T11:31:51.075Z,2373.75
2018-10-04T11:32:51.156Z,2486.25
2018-10-04T11:33:51.170Z,2581.88
2018-10-04T11:34:51.219Z,2531.25
2018-10-04T11:35:51.267Z,2536.88
2018-10-04T11:36:51.317Z,2559.38
2018-10-04T11:37:51.367Z,2587.50
2018-10-04T11:38:51.413Z,2570.63
2018-10-04T11:39:51.461Z,2553.75
2018-10-04T11:40:51.511Z,2615.63
2018-10-04T11:41:51.566Z,2514.38
2018-10-04T11:42:51.608Z,2514.38
2018-10-04T11:43:51.658Z,2508.75
2018-10-04T11:44:51.707Z,2441.25
2018-10-04T11:45:51.757Z,2430.00
2018-10-04T11:46:51.804Z,2520.00
2018-10-04T11:47:51.853Z,2638.13
2018-10-04T11:48:51.909Z,2643.75
2018-10-04T11:49:51.952Z,2576.25
2018-10-04T11:50:52.001Z,2531.25
2018-10-04T11:51:52.058Z,2514.38
2018-10-04T11:52:52.100Z,2570.63
2018-10-04T11:53:52.151Z,2688.75
2018-10-04T11:54:52.198Z,2677.50
2018-10-04T11:55:52.252Z,2593.13
2018-10-04T11:56:52.336Z,2542.50
2018-10-04T11:57:52.350Z,2536.88
2018-10-04T11:58:52.399Z,2536.88
2018-10-04T11:59:52.450Z,2531.25
2018-10-04T12:00:52.498Z,2576.25
2018-10-04T12:01:52.568Z,2643.75
2018-10-04T12:02:52.597Z,2705.63
2018-10-04T12:03:52.648Z,2716.88
2018-10-04T12:04:52.700Z,2615.63
2018-10-04T12:06:53.044Z,2739.38
2018-10-04T12:07:52.846Z,2739.38
2018-10-04T12:08:52.896Z,2688.75
2018-10-04T12:09:53.378Z,2655.00
2018-10-04T12:10:52.996Z,2615.63
2018-10-04T12:11:53.068Z,2643.75
2018-10-04T12:13:53.175Z,2660.63
2018-10-04T12:14:53.195Z,2677.50
2018-10-04T12:15:53.246Z,2722.50
2018-10-04T12:16:53.302Z,2694.38
2018-10-04T12:17:53.346Z,2683.13
2018-10-04T12:19:53.467Z,2694.38
2018-10-04T12:20:53.721Z,2750.63
2018-10-04T12:21:53.567Z,2694.38
2018-10-04T12:22:53.620Z,2615.63
2018-10-04T12:23:53.644Z,2683.13
2018-10-04T12:24:53.781Z,2621.25
2018-10-04T12:25:53.743Z,2621.25
2018-10-04T12:26:53.795Z,2655.00
2018-10-04T12:27:53.843Z,2604.38
2018-10-04T12:28:53.915Z,2559.38
2018-10-04T12:29:53.940Z,2576.25
2018-10-04T12:30:53.998Z,2621.25
2018-10-04T12:31:54.040Z,2587.50
2018-10-04T12:32:54.088Z,2598.75
2018-10-04T12:33:54.162Z,2671.88
2018-10-04T12:34:54.187Z,2638.13
2018-10-04T12:35:54.261Z,2705.63
2018-10-04T12:36:54.305Z,2705.63
2018-10-04T12:37:54.761Z,2666.25
2018-10-04T12:38:54.385Z,2621.25
2018-10-04T12:39:54.456Z,2610.00
2018-10-04T12:40:54.503Z,2666.25
2018-10-04T12:41:54.551Z,2621.25
2018-10-04T12:43:54.669Z,2666.25
2018-10-04T12:45:54.727Z,2722.50
2018-10-04T12:46:54.799Z,2705.63
2018-10-04T12:47:54.852Z,2655.00
2018-10-04T12:48:55.203Z,2581.88
2018-10-04T12:49:54.949Z,2615.63
2018-10-04T12:50:54.998Z,2649.38
2018-10-04T12:51:55.046Z,2649.38
2018-10-04T12:53:55.144Z,2626.88